Time;durP1;ratioP1;P1;durP2;ratioP2;P2;SDS_P1;SDS_P2;PMS_P1;PMS_P2;Temp;Humidity;BMP_temperature;BMP_pressure;BME280_temperature;BME280_humidity;BME280_pressure;Samples;Min_cycle;Max_cycle;Signal;HPM_P1;HPM_P2
2023/06/05 00:01:22;;;;;;;3.73;2.97;;;;;;;15.08;78.17;100349.75;5087385;28;20649;-78
2023/06/05 00:03:47;;;;;;;3.00;2.73;;;;;;;15.11;78.37;100351.41;5088485;28;20249;-79
2023/06/05 00:06:12;;;;;;;4.07;2.70;;;;;;;15.03;78.08;100351.63;5064251;28;20203;-80
2023/06/05 00:08:38;;;;;;;2.90;2.60;;;;;;;14.96;79.07;100355.28;5086158;28;20207;-81
2023/06/05 00:11:03;;;;;;;3.40;2.50;;;;;;;14.93;78.58;100347.56;5059342;28;20245;-80
2023/06/05 00:13:28;;;;;;;4.07;3.20;;;;;;;14.92;79.01;100351.88;5085886;28;20225;-79
2023/06/05 00:15:54;;;;;;;4.83;3.30;;;;;;;14.90;79.71;100345.84;5066172;28;20190;-79
2023/06/05 00:18:20;;;;;;;2.90;2.70;;;;;;;14.90;79.28;100353.69;5081472;28;20545;-78
2023/06/05 00:20:45;;;;;;;3.87;3.00;;;;;;;14.91;79.00;100349.34;5065633;28;20228;-79
2023/06/05 00:23:11;;;;;;;3.93;2.87;;;;;;;14.86;78.78;100354.69;5088607;28;20197;-80
2023/06/05 00:25:36;;;;;;;3.23;2.50;;;;;;;14.86;78.90;100346.84;5083326;28;20206;-79
2023/06/05 00:28:02;;;;;;;3.93;2.97;;;;;;;14.90;78.85;100339.81;5065827;28;20174;-80
2023/06/05 00:30:27;;;;;;;2.93;2.57;;;;;;;14.87;79.46;100345.97;5088565;28;20187;-81
2023/06/05 00:32:52;;;;;;;2.70;2.50;;;;;;;14.81;79.59;100340.06;5080784;28;20204;-80
2023/06/05 00:35:18;;;;;;;3.13;2.70;;;;;;;14.86;78.99;100340.78;5090589;28;20227;-78
2023/06/05 00:37:46;;;;;;;3.93;2.80;;;;;;;14.83;78.96;100346.06;5080215;28;20682;-79
2023/06/05 00:40:12;;;;;;;4.80;3.10;;;;;;;14.81;78.98;100340.91;5063254;28;20981;-77
2023/06/05 00:42:37;;;;;;;3.30;2.47;;;;;;;14.76;78.78;100343.63;5082960;28;20236;-77
2023/06/05 00:45:03;;;;;;;4.80;3.00;;;;;;;14.70;79.53;100342.94;5087392;28;20253;-79
2023/06/05 00:47:29;;;;;;;2.63;2.43;;;;;;;14.66;79.39;100339.53;5083812;28;20181;-78
2023/06/05 00:49:55;;;;;;;3.90;2.73;;;;;;;14.63;78.97;100343.03;5087977;28;20269;-80
2023/06/05 00:52:21;;;;;;;4.43;3.20;;;;;;;14.59;78.86;100340.56;5087392;28;20205;-78
2023/06/05 00:54:47;;;;;;;3.70;2.60;;;;;;;14.53;78.33;100345.91;5090549;28;20231;-80
2023/06/05 00:57:13;;;;;;;3.53;2.90;;;;;;;14.57;78.68;100345.81;5091529;28;20240;-80
2023/06/05 00:59:40;;;;;;;3.03;2.80;;;;;;;14.57;78.61;100344.94;5090495;28;20233;-80
2023/06/05 01:02:06;;;;;;;3.37;2.73;;;;;;;14.58;78.71;100344.91;5071454;28;20210;-78
2023/06/05 01:04:32;;;;;;;5.80;2.97;;;;;;;14.57;78.85;100338.00;5088400;28;20179;-80
2023/06/05 01:06:59;;;;;;;3.70;2.87;;;;;;;14.51;79.08;100348.56;5086548;28;20189;-80
2023/06/05 01:09:25;;;;;;;3.43;3.10;;;;;;;14.53;79.30;100346.78;5083346;28;20179;-77
2023/06/05 01:11:58;;;;;;;5.03;3.33;;;;;;;14.44;79.32;100340.03;5088584;28;20212;-78
2023/06/05 01:14:27;;;;;;;4.27;2.90;;;;;;;14.45;79.42;100352.16;5086063;28;20221;-80
2023/06/05 01:16:54;;;;;;;3.53;3.00;;;;;;;14.43;79.54;100351.34;5090267;28;20189;-82
2023/06/05 01:19:20;;;;;;;4.13;2.77;;;;;;;14.40;79.63;100356.63;5091793;28;20181;-81
2023/06/05 01:21:49;;;;;;;5.17;2.93;;;;;;;14.35;79.58;100355.88;5088233;28;20207;-80
2023/06/05 01:24:15;;;;;;;3.60;2.90;;;;;;;14.33;79.37;100352.47;5068933;28;20181;-78
2023/06/05 01:27:00;;;;;;;4.00;3.00;;;;;;;14.33;79.37;100350.69;5085470;28;20199;-80
2023/06/05 01:29:32;;;;;;;4.40;3.10;;;;;;;14.22;79.86;100344.91;5066357;28;20184;-80
2023/06/05 01:32:06;;;;;;;3.90;3.03;;;;;;;14.27;79.98;100345.66;5085961;28;20205;-82
2023/06/05 01:34:32;;;;;;;4.13;3.23;;;;;;;14.27;80.10;100342.19;5069522;28;20232;-80
2023/06/05 01:36:58;;;;;;;4.33;3.00;;;;;;;14.28;80.58;100342.16;5083396;28;20576;-80
2023/06/05 01:39:25;;;;;;;3.67;3.30;;;;;;;14.29;80.14;100337.81;5085314;28;20185;-79
2023/06/05 01:41:56;;;;;;;6.80;3.40;;;;;;;14.24;80.50;100339.66;5081879;28;20268;-80
2023/06/05 01:44:22;;;;;;;4.17;2.93;;;;;;;14.18;80.37;100325.03;5085755;28;20230;-79
2023/06/05 01:46:48;;;;;;;5.07;3.33;;;;;;;14.20;79.83;100338.88;5088106;28;20590;-80
2023/06/05 01:49:14;;;;;;;3.83;3.27;;;;;;;14.10;80.30;100335.63;5085544;28;20191;-79
2023/06/05 01:51:39;;;;;;;4.87;3.20;;;;;;;14.14;80.40;100324.25;5079248;28;20211;-79
2023/06/05 01:54:05;;;;;;;5.33;3.63;;;;;;;14.12;80.56;100320.00;5065955;28;20294;-79
2023/06/05 01:56:32;;;;;;;4.40;3.67;;;;;;;14.13;80.08;100324.31;5069199;28;20199;-79
2023/06/05 01:58:58;;;;;;;3.40;3.10;;;;;;;14.24;79.30;100317.09;5069891;28;20903;-79
2023/06/05 02:01:23;;;;;;;4.60;3.70;;;;;;;14.17;79.90;100324.19;5085642;28;20322;-81
2023/06/05 02:03:49;;;;;;;4.10;3.30;;;;;;;14.13;79.91;100312.13;5084982;28;20570;-79
2023/06/05 02:06:16;;;;;;;3.80;3.40;;;;;;;14.14;79.93;100326.84;5082408;28;20190;-79
2023/06/05 02:08:41;;;;;;;6.50;3.57;;;;;;;14.19;79.50;100316.34;5074943;28;20193;-79
2023/06/05 02:11:10;;;;;;;4.83;3.53;;;;;;;14.12;78.35;100318.22;5079849;28;20190;-78
2023/06/05 02:13:40;;;;;;;3.60;3.13;;;;;;;14.23;78.65;100325.78;5081454;28;20772;-78
2023/06/05 02:16:09;;;;;;;3.60;3.30;;;;;;;14.22;77.92;100329.28;5078048;28;20193;-77
2023/06/05 02:18:36;;;;;;;4.33;3.00;;;;;;;14.15;78.08;100318.16;5073341;28;20182;-77
2023/06/05 02:21:03;;;;;;;4.33;3.27;;;;;;;14.13;77.97;100324.31;5059667;28;20268;-78
2023/06/05 02:23:29;;;;;;;4.47;2.83;;;;;;;14.09;78.52;100331.31;5083237;28;20183;-80
2023/06/05 02:25:55;;;;;;;5.00;3.30;;;;;;;13.97;78.88;100337.66;5081338;28;20210;-80
2023/06/05 02:28:21;;;;;;;3.70;3.00;;;;;;;13.96;79.30;100327.28;5080803;28;20186;-79
2023/06/05 02:30:47;;;;;;;3.20;2.90;;;;;;;13.91;78.93;100331.75;5084470;28;20185;-78
2023/06/05 02:33:14;;;;;;;4.27;3.03;;;;;;;13.95;78.95;100334.22;5066459;28;20200;-79
2023/06/05 02:35:40;;;;;;;5.37;3.00;;;;;;;13.95;79.08;100334.22;5083428;28;20238;-80
2023/06/05 02:38:06;;;;;;;3.83;2.80;;;;;;;13.92;78.77;100329.09;5086645;28;20200;-79
2023/06/05 02:40:31;;;;;;;4.77;2.90;;;;;;;13.91;79.42;100331.75;5083630;28;20190;-78
2023/06/05 02:42:57;;;;;;;3.97;2.97;;;;;;;13.84;79.04;100333.63;5067057;28;20214;-78
2023/06/05 02:45:22;;;;;;;3.87;2.90;;;;;;;13.78;79.04;100329.38;5085234;28;20183;-77
2023/06/05 02:47:50;;;;;;;4.03;3.00;;;;;;;13.72;79.46;100335.56;5066193;28;20196;-79
2023/06/05 02:50:16;;;;;;;3.30;3.00;;;;;;;13.71;79.27;100336.47;5082473;28;20677;-76
2023/06/05 02:52:41;;;;;;;3.30;2.53;;;;;;;13.74;78.71;100338.16;5068966;28;20213;-78
2023/06/05 02:55:07;;;;;;;6.17;2.67;;;;;;;13.78;78.76;100331.13;5085152;28;20251;-77
2023/06/05 02:57:40;;;;;;;5.20;3.10;;;;;;;13.73;78.75;100326.03;5082678;28;20184;-78
2023/06/05 03:00:14;;;;;;;4.17;2.73;;;;;;;13.69;79.20;100329.59;5079217;28;20538;-76
2023/06/05 03:02:40;;;;;;;4.83;2.70;;;;;;;13.71;78.75;100318.25;5058620;28;20203;-77
2023/06/05 03:05:06;;;;;;;4.60;2.93;;;;;;;13.77;79.41;100322.47;5082353;28;20174;-76
2023/06/05 03:07:33;;;;;;;3.80;2.67;;;;;;;13.75;78.53;100324.28;5077011;28;20226;-79
2023/06/05 03:09:59;;;;;;;4.40;2.80;;;;;;;13.72;78.75;100324.31;5081488;28;20175;-78
2023/06/05 03:12:24;;;;;;;3.17;2.90;;;;;;;13.74;79.00;100325.16;5089224;28;20580;-77
2023/06/05 03:14:50;;;;;;;2.63;2.27;;;;;;;13.77;78.86;100326.81;5077993;28;20926;-76
2023/06/05 03:17:15;;;;;;;3.27;2.57;;;;;;;13.76;78.21;100330.31;5089885;28;20212;-80
2023/06/05 03:19:40;;;;;;;3.37;3.07;;;;;;;13.75;78.16;100326.88;5102002;28;20181;-79
2023/06/05 03:22:06;;;;;;;2.60;2.20;;;;;;;13.71;78.25;100331.25;5089828;28;20539;-78
2023/06/05 03:24:31;;;;;;;3.20;2.33;;;;;;;13.68;78.14;100326.16;5097983;28;20189;-78
2023/06/05 03:26:56;;;;;;;3.90;2.87;;;;;;;13.64;77.97;100332.28;5079215;28;20216;-78
2023/06/05 03:29:21;;;;;;;5.07;2.60;;;;;;;13.60;78.47;100333.22;5075296;28;20196;-80
2023/06/05 03:31:47;;;;;;;3.17;2.87;;;;;;;13.66;78.30;100327.91;5083615;28;20608;-77
2023/06/05 03:34:12;;;;;;;2.70;2.40;;;;;;;13.64;78.76;100339.22;5077917;28;20544;-78
2023/06/05 03:36:39;;;;;;;3.37;2.87;;;;;;;13.64;78.42;100337.50;5081769;28;20186;-79
2023/06/05 03:39:04;;;;;;;4.47;2.80;;;;;;;13.68;78.00;100333.94;5083742;28;20205;-79
2023/06/05 03:41:30;;;;;;;5.90;2.80;;;;;;;13.72;78.63;100339.94;5077597;28;20232;-77
2023/06/05 03:43:56;;;;;;;4.07;2.77;;;;;;;13.72;79.17;100335.56;5077605;28;20181;-77
2023/06/05 03:46:23;;;;;;;5.70;2.80;;;;;;;13.72;79.42;100332.13;5083836;28;20234;-78
2023/06/05 03:48:49;;;;;;;3.53;2.97;;;;;;;13.75;79.71;100333.81;5060081;28;20185;-77
2023/06/05 03:51:18;;;;;;;3.43;2.70;;;;;;;13.77;79.80;100335.47;5078600;28;21063;-77
2023/06/05 03:53:44;;;;;;;3.03;2.57;;;;;;;13.74;80.32;100345.97;5062318;28;20771;-78
2023/06/05 03:56:11;;;;;;;3.87;2.83;;;;;;;13.78;80.06;100346.75;5083297;28;20682;-78
2023/06/05 03:58:36;;;;;;;3.50;2.73;;;;;;;13.83;80.15;100347.50;5080453;28;20188;-80
2023/06/05 04:01:01;;;;;;;3.03;2.53;;;;;;;13.72;80.56;100347.75;5079305;28;20188;-78
2023/06/05 04:03:27;;;;;;;3.40;2.47;;;;;;;13.70;80.53;100350.34;5081788;28;20246;-80
2023/06/05 04:05:52;;;;;;;4.83;2.83;;;;;;;13.63;81.08;100356.59;5078996;28;20203;-78
2023/06/05 04:08:18;;;;;;;3.00;2.70;;;;;;;13.69;80.56;100351.22;5076972;28;20182;-78
2023/06/05 04:10:43;;;;;;;3.70;2.93;;;;;;;13.53;80.70;100344.66;5077506;28;20535;-79
2023/06/05 04:13:08;;;;;;;5.90;3.20;;;;;;;13.70;80.43;100352.09;5066739;28;20690;-77
2023/06/05 04:15:34;;;;;;;5.37;3.20;;;;;;;13.65;80.68;100349.59;5077023;28;20225;-78
2023/06/05 04:18:00;;;;;;;3.43;3.10;;;;;;;13.64;80.83;100344.41;5081256;28;20189;-78
2023/06/05 04:20:25;;;;;;;4.03;2.80;;;;;;;13.65;81.35;100347.00;5076561;28;20195;-78
2023/06/05 04:22:51;;;;;;;4.93;2.80;;;;;;;13.59;81.05;100346.28;5059649;28;20394;-81
2023/06/05 04:25:16;;;;;;;3.63;3.10;;;;;;;13.67;81.53;100353.03;5078920;28;20521;-80
2023/06/05 04:27:43;;;;;;;8.93;3.03;;;;;;;13.85;81.59;100349.19;5081452;28;20190;-81
2023/06/05 04:30:11;;;;;;;4.57;2.80;;;;;;;13.78;81.54;100357.16;5079856;28;20648;-78
2023/06/05 04:32:38;;;;;;;3.50;2.70;;;;;;;13.87;80.41;100346.53;5063461;28;20206;-78
2023/06/05 04:35:08;;;;;;;4.47;2.80;;;;;;;13.89;80.80;100351.72;5066854;28;20210;-80
2023/06/05 04:37:35;;;;;;;4.27;3.00;;;;;;;14.12;80.02;100346.00;5066146;28;20277;-79
2023/06/05 04:40:04;;;;;;;3.33;2.47;;;;;;;14.64;78.09;100357.78;5082061;28;20223;-81
2023/06/05 04:42:30;;;;;;;2.97;2.70;;;;;;;14.69;77.57;100352.47;5077477;28;20253;-77
2023/06/05 04:45:03;;;;;;;3.43;2.37;;;;;;;14.98;76.63;100344.81;5080188;28;20304;-79
2023/06/05 04:47:28;;;;;;;3.23;2.73;;;;;;;14.75;77.20;100351.47;5064342;28;20188;-80
2023/06/05 04:49:54;;;;;;;3.53;2.60;;;;;;;14.86;76.72;100353.81;5065098;28;20173;-78
2023/06/05 04:52:21;;;;;;;5.03;3.00;;;;;;;15.21;75.89;100352.03;5063403;28;20748;-79
2023/06/05 04:54:47;;;;;;;8.30;2.70;;;;;;;15.34;76.24;100356.00;5078640;28;20216;-80
2023/06/05 04:57:12;;;;;;;3.40;2.53;;;;;;;15.49;75.21;100352.13;5088555;28;20537;-78
2023/06/05 04:59:38;;;;;;;3.30;2.67;;;;;;;15.48;75.07;100360.84;5084473;28;20186;-79
2023/06/05 05:02:04;;;;;;;6.13;2.53;;;;;;;15.84;74.59;100358.06;5064040;28;20213;-79
2023/06/05 05:04:29;;;;;;;3.37;3.07;;;;;;;16.67;72.54;100359.00;5081602;28;20190;-77
2023/06/05 05:07:01;;;;;;;4.50;2.43;;;;;;;16.82;70.66;100362.84;5087566;28;20179;-79
2023/06/05 05:09:33;;;;;;;2.50;2.30;;;;;;;17.24;69.79;100360.59;5069998;28;20231;-80
2023/06/05 05:11:59;;;;;;;3.20;2.30;;;;;;;17.74;69.19;100357.03;5078938;28;21981;-79
2023/06/05 05:14:27;;;;;;;3.60;2.37;;;;;;;18.08;68.24;100354.00;5066915;28;20955;-77
2023/06/05 05:16:52;;;;;;;4.07;2.40;;;;;;;18.03;67.58;100350.69;5079701;28;20403;-77
2023/06/05 05:19:17;;;;;;;4.03;2.07;;;;;;;18.30;67.14;100355.78;5057215;28;20268;-78
2023/06/05 05:21:43;;;;;;;4.57;2.70;;;;;;;18.24;67.01;100353.41;5076533;28;20221;-78
2023/06/05 05:24:08;;;;;;;3.63;2.43;;;;;;;18.43;66.49;100357.00;5063085;28;20197;-79
2023/06/05 05:26:33;;;;;;;5.43;2.67;;;;;;;18.47;66.26;100356.84;5081497;28;20628;-78
2023/06/05 05:28:59;;;;;;;4.53;2.40;;;;;;;18.04;68.00;100351.56;5081817;28;20192;-80
2023/06/05 05:31:24;;;;;;;4.07;2.23;;;;;;;18.15;68.22;100349.38;5061985;28;20768;-80
2023/06/05 05:33:49;;;;;;;5.83;2.50;;;;;;;18.61;65.94;100365.00;5056213;28;20205;-78
2023/06/05 05:36:15;;;;;;;3.10;2.60;;;;;;;17.89;67.52;100351.22;5076079;28;20239;-80
2023/06/05 05:38:40;;;;;;;6.07;2.43;;;;;;;16.85;70.90;100362.75;5083128;28;20177;-79
2023/06/05 05:41:06;;;;;;;8.73;2.70;;;;;;;17.45;69.44;100351.13;5081184;28;20183;-79
2023/06/05 05:43:31;;;;;;;5.13;2.43;;;;;;;18.36;68.36;100352.91;5085363;28;20177;-77
2023/06/05 05:45:57;;;;;;;4.83;2.10;;;;;;;19.06;65.95;100357.91;5076422;28;20184;-79
2023/06/05 05:48:22;;;;;;;2.60;2.40;;;;;;;19.44;64.71;100351.88;5082303;28;20228;-80
2023/06/05 05:50:48;;;;;;;3.63;2.40;;;;;;;20.01;63.47;100351.06;5088322;28;20209;-79
2023/06/05 05:53:13;;;;;;;5.83;2.43;;;;;;;20.07;63.31;100354.25;5081271;28;20204;-80
2023/06/05 05:55:39;;;;;;;8.73;2.83;;;;;;;20.33;61.75;100361.81;5065158;28;20201;-80
2023/06/05 05:58:04;;;;;;;45.93;6.60;;;;;;;19.87;63.44;100363.06;5083195;28;20264;-77
2023/06/05 06:00:29;;;;;;;2.10;1.90;;;;;;;20.81;62.38;100356.84;5076739;28;20301;-76
2023/06/05 06:02:55;;;;;;;3.30;2.20;;;;;;;20.74;60.42;100360.69;5085895;28;20731;-80
2023/06/05 06:05:21;;;;;;;3.63;2.27;;;;;;;20.37;61.78;100355.47;5084321;28;20185;-80
2023/06/05 06:07:46;;;;;;;4.27;2.40;;;;;;;20.31;62.58;100358.41;5081381;28;20213;-79
2023/06/05 06:10:12;;;;;;;4.17;2.40;;;;;;;20.11;63.41;100352.34;5084517;28;20256;-80
2023/06/05 06:12:38;;;;;;;6.23;2.50;;;;;;;19.95;62.77;100353.06;5084470;28;20303;-78
2023/06/05 06:15:04;;;;;;;4.07;2.40;;;;;;;20.45;62.18;100348.06;5075129;28;20205;-79
2023/06/05 06:17:29;;;;;;;4.80;2.60;;;;;;;20.10;63.09;100348.03;5085477;28;20189;-76
2023/06/05 06:19:55;;;;;;;4.20;2.27;;;;;;;20.83;61.52;100347.97;5082818;28;20568;-80
2023/06/05 06:22:20;;;;;;;4.57;2.30;;;;;;;20.66;61.95;100348.75;5082081;28;20204;-79
2023/06/05 06:24:46;;;;;;;4.63;2.40;;;;;;;20.60;61.70;100346.47;5066760;28;20176;-79
2023/06/05 06:27:12;;;;;;;4.60;2.23;;;;;;;21.13;61.26;100349.06;5080405;28;20177;-78
2023/06/05 06:29:47;;;;;;;3.43;2.03;;;;;;;21.39;60.29;100339.81;5079829;28;20295;-77
2023/06/05 06:32:12;;;;;;;3.40;2.17;;;;;;;21.68;60.10;100355.00;5076599;28;20205;-79
2023/06/05 06:34:38;;;;;;;3.63;2.40;;;;;;;21.29;60.54;100347.34;5076680;28;20240;-78
2023/06/05 06:37:04;;;;;;;5.50;2.33;;;;;;;21.44;59.67;100355.34;5087397;28;20281;-78
2023/06/05 06:39:29;;;;;;;6.50;2.30;;;;;;;21.68;60.04;100349.72;5080470;28;20200;-75
2023/06/05 06:41:55;;;;;;;13.57;3.00;;;;;;;21.65;60.42;100353.38;5061567;28;20618;-80
2023/06/05 06:44:22;;;;;;;7.47;2.40;;;;;;;20.31;62.47;100355.75;5079244;28;20173;-79
2023/06/05 06:46:47;;;;;;;3.70;2.20;;;;;;;20.09;62.84;100356.81;5081504;28;20249;-80
2023/06/05 06:49:12;;;;;;;2.13;1.77;;;;;;;21.27;61.16;100343.94;5076612;28;20266;-79
2023/06/05 06:51:38;;;;;;;4.27;2.50;;;;;;;21.00;61.99;100360.22;5079713;28;20205;-78
2023/06/05 06:54:03;;;;;;;4.87;2.43;;;;;;;20.58;61.91;100352.69;5081363;28;20200;-81
2023/06/05 06:56:29;;;;;;;2.87;2.30;;;;;;;21.14;61.54;100359.53;5084825;28;20185;-79
2023/06/05 06:58:56;;;;;;;5.13;2.40;;;;;;;20.73;62.10;100353.72;5084727;28;20738;-79
2023/06/05 07:01:21;;;;;;;2.73;2.13;;;;;;;21.44;61.90;100358.84;5074963;28;20189;-78
2023/06/05 07:03:46;;;;;;;3.13;2.07;;;;;;;21.67;61.44;100358.56;5061163;28;20227;-78
2023/06/05 07:06:12;;;;;;;4.30;2.10;;;;;;;20.85;61.66;100359.25;5084201;28;21064;-79
2023/06/05 07:08:38;;;;;;;7.27;3.00;;;;;;;21.19;61.89;100359.28;5084262;28;20185;-79
2023/06/05 07:11:03;;;;;;;3.63;2.50;;;;;;;21.17;61.92;100355.88;5056943;28;20916;-77
2023/06/05 07:13:29;;;;;;;5.53;2.57;;;;;;;20.28;63.45;100358.53;5083404;28;20656;-77
2023/06/05 07:15:55;;;;;;;6.17;2.70;;;;;;;19.98;64.36;100354.69;5081888;28;20736;-78
2023/06/05 07:18:21;;;;;;;6.57;2.50;;;;;;;21.05;62.89;100364.41;5080557;28;20211;-79
2023/06/05 07:20:46;;;;;;;7.73;2.87;;;;;;;21.34;62.56;100356.78;5060030;28;20662;-81
2023/06/05 07:23:12;;;;;;;3.73;2.37;;;;;;;21.45;61.16;100359.69;5061151;28;20204;-78
2023/06/05 07:25:38;;;;;;;4.20;1.97;;;;;;;22.04;61.12;100352.13;5082465;28;20178;-78
2023/06/05 07:28:08;;;;;;;3.57;2.47;;;;;;;21.73;60.30;100360.84;5079665;28;20193;-80
2023/06/05 07:30:34;;;;;;;4.13;2.20;;;;;;;22.15;60.13;100351.53;5049665;28;20173;-78
2023/06/05 07:33:00;;;;;;;2.37;2.17;;;;;;;22.69;59.56;100352.84;5070380;28;20736;-80
2023/06/05 07:35:25;;;;;;;9.27;2.97;;;;;;;22.28;60.39;100351.66;5084098;28;20234;-78
2023/06/05 07:37:51;;;;;;;20.30;3.40;;;;;;;21.92;60.66;100352.81;5069338;28;20269;-79
2023/06/05 07:40:17;;;;;;;6.43;2.87;;;;;;;21.20;61.26;100357.50;5080697;28;20589;-81
2023/06/05 07:42:42;;;;;;;2.60;2.40;;;;;;;20.58;62.86;100352.69;5084662;28;20212;-81
2023/06/05 07:45:08;;;;;;;4.13;2.30;;;;;;;21.61;62.12;100349.22;5082032;28;20192;-79
2023/06/05 07:47:34;;;;;;;5.73;2.53;;;;;;;22.04;60.83;100341.56;5065426;28;20181;-80
2023/06/05 07:50:00;;;;;;;61.40;7.77;;;;;;;21.81;61.20;100345.50;5067862;28;20177;-79
2023/06/05 07:52:30;;;;;;;5.10;2.63;;;;;;;22.01;61.16;100347.00;5080659;28;20216;-81
2023/06/05 07:54:56;;;;;;;3.63;2.47;;;;;;;21.65;60.70;100345.47;5088819;28;21012;-78
2023/06/05 07:57:23;;;;;;;3.53;2.50;;;;;;;21.04;62.48;100349.56;5065891;28;20181;-79
2023/06/05 07:59:50;;;;;;;6.67;2.40;;;;;;;21.51;61.31;100359.38;5087798;28;20541;-77
2023/06/05 08:02:18;;;;;;;6.87;2.70;;;;;;;21.38;62.09;100355.69;5068197;28;20787;-80
2023/06/05 08:04:44;;;;;;;6.83;2.70;;;;;;;21.15;62.12;100353.34;5065335;28;20193;-82
2023/06/05 08:07:10;;;;;;;3.63;2.60;;;;;;;20.86;63.29;100350.44;5068028;28;20184;-79
2023/06/05 08:09:36;;;;;;;11.60;3.23;;;;;;;21.83;61.63;100353.28;5062243;28;20234;-79
2023/06/05 08:12:03;;;;;;;8.73;3.17;;;;;;;22.03;61.08;100354.81;5085108;28;20940;-81
2023/06/05 08:14:28;;;;;;;4.13;2.33;;;;;;;21.97;61.15;100353.38;5063098;28;20304;-79
2023/06/05 08:16:55;;;;;;;4.33;2.60;;;;;;;22.02;60.13;100366.28;5054440;28;20284;-81
2023/06/05 08:19:20;;;;;;;3.17;2.30;;;;;;;22.17;60.81;100359.31;5080473;28;20867;-80
2023/06/05 08:21:46;;;;;;;13.30;3.50;;;;;;;22.36;59.85;100359.97;5090709;28;20215;-77
2023/06/05 08:24:11;;;;;;;7.67;2.57;;;;;;;22.10;60.55;100365.88;5081967;28;20714;-79
2023/06/05 08:26:36;;;;;;;7.50;2.90;;;;;;;22.23;60.82;100351.09;5082122;28;20181;-80
2023/06/05 08:29:02;;;;;;;11.03;3.07;;;;;;;22.43;61.04;100349.97;5084033;28;21052;-79
2023/06/05 08:31:28;;;;;;;12.57;2.93;;;;;;;22.35;59.92;100360.91;5066446;28;20274;-78
2023/06/05 08:33:53;;;;;;;4.20;2.03;;;;;;;21.94;60.85;100353.53;5083561;28;20292;-78
2023/06/05 08:36:19;;;;;;;6.20;3.03;;;;;;;22.32;61.00;100342.63;5088548;28;20583;-78
2023/06/05 08:38:44;;;;;;;14.47;3.47;;;;;;;22.39;60.96;100336.06;5087510;28;20181;-80
2023/06/05 08:41:10;;;;;;;5.43;2.47;;;;;;;23.03;60.57;100334.16;5077933;28;20255;-79
2023/06/05 08:43:39;;;;;;;5.83;2.40;;;;;;;22.31;60.82;100334.81;5087849;28;20669;-79
2023/06/05 08:46:06;;;;;;;8.10;2.90;;;;;;;22.37;60.68;100337.97;5086669;28;20185;-80
2023/06/05 08:48:46;;;;;;;4.47;2.73;;;;;;;21.61;61.70;100339.53;5088127;28;20696;-77
2023/06/05 08:51:13;;;;;;;5.80;2.70;;;;;;;21.78;61.58;100343.03;5087862;28;20188;-80
2023/06/05 08:53:41;;;;;;;4.83;2.50;;;;;;;21.45;61.28;100350.00;5086796;28;20209;-77
2023/06/05 08:56:08;;;;;;;5.57;2.60;;;;;;;21.58;61.55;100341.44;5091895;28;20197;-79
2023/06/05 08:58:34;;;;;;;3.80;2.50;;;;;;;21.57;60.08;100343.22;5087437;28;20189;-77
2023/06/05 09:01:00;;;;;;;6.93;2.70;;;;;;;21.64;60.75;100349.03;5087118;28;20468;-76
2023/06/05 09:03:25;;;;;;;6.50;2.60;;;;;;;21.69;60.98;100340.91;5082793;28;20212;-77
2023/06/05 09:05:52;;;;;;;6.17;2.50;;;;;;;21.82;61.17;100346.31;5064511;28;20236;-77
2023/06/05 09:08:19;;;;;;;7.33;3.03;;;;;;;21.73;61.52;100331.88;5068124;28;20185;-80
2023/06/05 09:10:44;;;;;;;4.87;2.57;;;;;;;22.11;60.41;100336.81;5083933;28;20212;-78
2023/06/05 09:13:10;;;;;;;7.20;3.23;;;;;;;22.04;60.29;100330.16;5067478;28;20213;-78
2023/06/05 09:15:37;;;;;;;12.17;3.53;;;;;;;21.89;61.44;100330.09;5080783;28;20646;-77
2023/06/05 09:18:10;;;;;;;4.13;2.63;;;;;;;21.58;61.21;100342.28;5084667;28;20243;-79
2023/06/05 09:20:37;;;;;;;4.17;2.83;;;;;;;21.89;60.72;100335.38;5057651;28;20223;-78
2023/06/05 09:23:06;;;;;;;13.13;3.63;;;;;;;21.88;61.84;100333.66;5081160;28;20209;-79
2023/06/05 09:25:48;;;;;;;7.60;3.27;;;;;;;22.21;60.94;100337.13;5094724;28;20181;-78
2023/06/05 09:28:15;;;;;;;7.80;3.20;;;;;;;22.24;60.08;100329.03;5087112;28;20188;-78
2023/06/05 09:31:00;;;;;;;10.70;3.23;;;;;;;22.38;60.43;100330.88;5084113;28;20193;-77
2023/06/05 09:33:28;;;;;;;13.73;3.53;;;;;;;22.37;61.22;100327.41;5088730;28;20219;-79
2023/06/05 09:36:05;;;;;;;6.53;3.33;;;;;;;22.45;60.48;100327.00;5076179;28;20220;-78
2023/06/05 09:38:31;;;;;;;19.40;4.03;;;;;;;22.60;60.53;100319.97;5084087;28;20209;-79
2023/06/05 09:41:06;;;;;;;3.90;2.47;;;;;;;22.69;61.13;100316.75;5068384;28;20185;-75
2023/06/05 09:43:33;;;;;;;8.07;3.43;;;;;;;22.66;61.45;100329.28;5086379;28;20672;-78
2023/06/05 09:45:58;;;;;;;8.87;3.33;;;;;;;22.65;61.54;100330.22;5077966;28;20189;-79
2023/06/05 09:48:25;;;;;;;4.70;2.87;;;;;;;22.30;61.00;100326.06;5080688;28;20246;-81
2023/06/05 09:50:52;;;;;;;4.67;2.93;;;;;;;22.46;61.78;100310.22;5065185;28;20197;-78
2023/06/05 09:53:20;;;;;;;6.07;3.40;;;;;;;22.68;62.15;100312.47;5076842;28;20208;-78
2023/06/05 09:55:45;;;;;;;4.03;2.80;;;;;;;22.99;61.19;100313.22;5079799;28;20324;-79
2023/06/05 09:58:15;;;;;;;4.87;3.20;;;;;;;23.04;61.24;100309.47;5064732;28;20182;-81
2023/06/05 10:00:41;;;;;;;3.83;3.10;;;;;;;22.75;61.71;100309.44;5083272;28;20189;-78
2023/06/05 10:03:17;;;;;;;7.20;3.20;;;;;;;22.63;62.13;100319.78;5087445;28;20201;-79
2023/06/05 10:05:44;;;;;;;4.90;3.13;;;;;;;22.88;62.21;100309.56;5082184;28;20611;-80
2023/06/05 10:08:13;;;;;;;5.83;3.10;;;;;;;22.75;62.56;100310.31;5059722;28;20181;-80
2023/06/05 10:10:39;;;;;;;6.57;3.00;;;;;;;22.63;63.27;100300.44;5075360;28;20188;-79
2023/06/05 10:13:04;;;;;;;5.20;2.87;;;;;;;22.79;63.48;100295.97;5061020;28;20205;-80
2023/06/05 10:15:31;;;;;;;5.90;3.17;;;;;;;22.90;62.89;100292.69;5068692;28;21113;-77
2023/06/05 10:17:57;;;;;;;5.13;3.00;;;;;;;23.11;62.35;100295.78;5078500;28;20189;-80
2023/06/05 10:20:22;;;;;;;4.67;3.40;;;;;;;23.20;63.95;100302.34;5076136;28;20214;-79
2023/06/05 10:22:50;;;;;;;5.73;3.20;;;;;;;23.21;64.38;100301.41;5080066;28;20201;-79
2023/06/05 10:25:19;;;;;;;4.57;3.43;;;;;;;23.11;63.54;100303.72;5063141;28;20191;-78
2023/06/05 10:27:54;;;;;;;4.03;3.43;;;;;;;23.48;63.56;100295.31;5075392;28;20225;-79
2023/06/05 10:30:55;;;;;;;6.30;4.00;;;;;;;23.38;63.70;100294.22;5060051;28;20315;-80
2023/06/05 10:33:42;;;;;;;5.30;3.70;;;;;;;23.62;64.26;100285.66;5081743;28;20209;-77
2023/06/05 10:36:18;;;;;;;6.63;3.87;;;;;;;23.41;64.91;100297.50;5080901;28;20185;-78
2023/06/05 10:38:44;;;;;;;4.97;3.70;;;;;;;23.56;64.05;100281.63;5085916;28;20250;-78
2023/06/05 10:41:11;;;;;;;8.70;4.27;;;;;;;23.55;64.89;100298.41;5080132;28;20417;-79
2023/06/05 10:43:46;;;;;;;4.77;4.17;;;;;;;23.50;65.30;100279.41;5076171;28;20198;-80
2023/06/05 10:46:26;;;;;;;6.43;4.47;;;;;;;23.72;65.24;100274.41;5083830;28;20268;-79
2023/06/05 10:49:05;;;;;;;5.00;3.60;;;;;;;23.90;65.49;100271.53;5062147;28;20189;-79
2023/06/05 10:51:37;;;;;;;6.17;4.70;;;;;;;23.86;64.82;100293.81;5080258;28;20361;-77
2023/06/05 10:54:03;;;;;;;6.93;4.33;;;;;;;23.59;65.30;100266.47;5063234;28;20210;-77
2023/06/05 10:57:03;;;;;;;5.37;4.27;;;;;;;23.87;65.50;100269.09;5078409;28;20192;-78
2023/06/05 10:59:30;;;;;;;4.77;4.20;;;;;;;23.84;64.90;100272.78;5062517;28;20182;-78
2023/06/05 11:02:05;;;;;;;7.83;4.20;;;;;;;24.01;65.20;100253.19;5080258;28;20689;-79
2023/06/05 11:04:42;;;;;;;10.40;4.73;;;;;;;23.89;65.52;100273.34;5082024;28;20265;-77
2023/06/05 11:07:14;;;;;;;9.17;4.73;;;;;;;24.02;65.43;100260.19;5084003;28;20193;-78
2023/06/05 11:10:05;;;;;;;6.07;4.63;;;;;;;24.00;65.13;100264.72;5059401;28;20268;-79
2023/06/05 11:12:42;;;;;;;5.93;4.10;;;;;;;24.03;65.65;100250.47;5079709;28;20294;-80
2023/06/05 11:15:26;;;;;;;7.13;4.70;;;;;;;24.06;65.03;100266.09;5079814;28;20220;-80
2023/06/05 11:17:51;;;;;;;5.33;4.43;;;;;;;23.87;64.94;100250.59;5084781;28;20256;-79
2023/06/05 11:20:23;;;;;;;10.30;5.23;;;;;;;23.90;65.27;100251.22;5063082;28;20260;-82
2023/06/05 11:23:09;;;;;;;4.83;4.43;;;;;;;24.03;65.88;100246.03;5078367;28;20213;-79
2023/06/05 11:25:36;;;;;;;5.13;4.37;;;;;;;24.32;65.46;100245.03;5061906;28;20180;-77